createdAt,value
2019-02-03T00:00:33.929Z,89.86
2019-02-03T00:03:05.513Z,90.37
2019-02-03T00:05:39.470Z,91.12
2019-02-03T00:08:13.307Z,91.30
2019-02-03T00:10:48.199Z,90.95
2019-02-03T00:13:22.579Z,91.19
2019-02-03T00:15:55.609Z,90.29
2019-02-03T00:18:27.163Z,90.49
2019-02-03T00:20:59.383Z,90.22
2019-02-03T00:23:35.177Z,89.90
2019-02-03T00:26:07.887Z,89.31
2019-02-03T00:28:39.107Z,90.00
2019-02-03T00:31:13.020Z,89.52
2019-02-03T00:33:47.950Z,89.61
2019-02-03T00:36:21.694Z,88.64
2019-02-03T00:38:55.621Z,88.46
2019-02-03T00:41:27.388Z,89.28
2019-02-03T00:43:59.493Z,89.12
2019-02-03T00:46:30.765Z,88.38
2019-02-03T00:49:04.056Z,89.01
2019-02-03T00:51:35.629Z,89.28
2019-02-03T00:54:09.757Z,88.93
2019-02-03T00:56:43.968Z,88.95
2019-02-03T00:59:17.573Z,88.98
2019-02-03T01:01:52.265Z,88.83
2019-02-03T01:04:27.218Z,88.57
2019-02-03T01:07:00.479Z,88.38
2019-02-03T01:09:33.989Z,88.78
2019-02-03T01:12:05.650Z,87.94
2019-02-03T01:14:39.639Z,88.13
2019-02-03T01:17:12.649Z,88.14
2019-02-03T01:19:43.876Z,88.02
2019-02-03T01:22:17.692Z,88.08
2019-02-03T01:24:51.655Z,88.57
2019-02-03T01:27:24.555Z,89.01
2019-02-03T01:29:59.495Z,88.75
2019-02-03T01:32:33.511Z,88.97
2019-02-03T01:35:07.166Z,88.93
2019-02-03T01:37:41.887Z,88.37
2019-02-03T01:40:15.842Z,88.53
2019-02-03T01:42:49.257Z,88.54
2019-02-03T01:45:23.160Z,88.66
2019-02-03T01:47:54.383Z,89.02
2019-02-03T01:50:27.441Z,88.60
2019-02-03T01:53:00.763Z,88.69
2019-02-03T01:55:35.500Z,88.56
2019-02-03T01:58:06.790Z,88.92
2019-02-03T02:00:38.200Z,88.74
2019-02-03T02:03:12.026Z,88.59
2019-02-03T02:05:46.175Z,89.15
2019-02-03T02:08:19.936Z,89.20
2019-02-03T02:10:54.299Z,89.38
2019-02-03T02:13:27.412Z,89.12
2019-02-03T02:15:58.836Z,88.37
2019-02-03T02:18:31.233Z,88.57
2019-02-03T02:21:05.044Z,88.87
2019-02-03T02:23:36.967Z,88.98
2019-02-03T02:26:08.947Z,88.98
2019-02-03T02:28:41.053Z,89.16
2019-02-03T02:31:13.855Z,88.58
2019-02-03T02:33:46.434Z,87.81
2019-02-03T02:36:17.849Z,88.26
2019-02-03T02:38:50.785Z,88.58
2019-02-03T02:41:24.254Z,87.76
2019-02-03T02:43:58.411Z,87.13
2019-02-03T02:46:31.507Z,87.89
2019-02-03T02:49:03.498Z,88.01
2019-02-03T02:51:37.230Z,88.36
2019-02-03T02:54:10.029Z,88.81
2019-02-03T02:56:43.759Z,88.51
2019-02-03T02:59:16.118Z,88.45
2019-02-03T03:01:51.263Z,88.87
2019-02-03T03:04:23.975Z,89.68
2019-02-03T03:06:59.829Z,89.80
2019-02-03T03:09:31.112Z,89.86
2019-02-03T03:12:04.188Z,89.79
2019-02-03T03:14:37.426Z,89.59
2019-02-03T03:17:11.894Z,89.94
2019-02-03T03:19:44.764Z,89.32
2019-02-03T03:22:18.178Z,89.38
2019-02-03T03:24:53.935Z,89.04
2019-02-03T03:27:27.320Z,88.81
2019-02-03T03:29:59.216Z,88.72
2019-02-03T03:32:31.719Z,88.53
2019-02-03T03:35:05.748Z,89.32
2019-02-03T03:37:37.023Z,89.33
2019-02-03T03:40:10.951Z,89.39
2019-02-03T03:42:44.378Z,89.80
2019-02-03T03:45:18.378Z,89.15
2019-02-03T03:47:54.019Z,89.01
2019-02-03T03:50:26.169Z,89.33
2019-02-03T03:52:57.769Z,89.56
2019-02-03T03:55:30.614Z,88.70
2019-02-03T03:58:02.819Z,89.31
2019-02-03T04:00:36.537Z,89.44
2019-02-03T04:03:10.367Z,89.21
2019-02-03T04:05:46.149Z,89.18
2019-02-03T04:08:18.346Z,89.18
2019-02-03T04:10:50.219Z,89.03
2019-02-03T04:13:23.410Z,89.54
2019-02-03T04:15:57.841Z,88.32
2019-02-03T04:18:31.673Z,88.41
2019-02-03T04:21:03.780Z,88.44
2019-02-03T04:23:37.598Z,88.19
2019-02-03T04:26:09.524Z,88.38
2019-02-03T04:28:40.824Z,88.56
2019-02-03T04:31:13.640Z,88.50
2019-02-03T04:33:45.454Z,88.13
2019-02-03T04:36:19.470Z,87.88
2019-02-03T04:38:58.286Z,88.27
2019-02-03T04:41:27.592Z,88.57
2019-02-03T04:44:00.601Z,89.00
2019-02-03T04:46:32.685Z,88.83
2019-02-03T04:49:08.365Z,89.92
2019-02-03T04:51:41.663Z,90.99
2019-02-03T04:54:14.709Z,91.49
2019-02-03T04:56:47.673Z,91.70
2019-02-03T04:59:20.641Z,92.47
2019-02-03T05:01:53.112Z,93.48
2019-02-03T05:04:26.647Z,93.58
2019-02-03T05:07:00.553Z,92.99
2019-02-03T05:09:34.555Z,91.80
2019-02-03T05:12:08.621Z,91.47
2019-02-03T05:14:42.593Z,90.27
2019-02-03T05:17:13.863Z,90.30
2019-02-03T05:19:47.643Z,90.09
2019-02-03T05:22:20.619Z,89.91
2019-02-03T05:24:56.382Z,89.65
2019-02-03T05:27:27.703Z,89.32
2019-02-03T05:30:01.170Z,89.78
2019-02-03T05:32:33.772Z,89.64
2019-02-03T05:35:06.157Z,89.18
2019-02-03T05:37:39.988Z,89.92
2019-02-03T05:40:15.724Z,90.27
2019-02-03T05:42:48.338Z,90.45
2019-02-03T05:45:22.237Z,90.75
2019-02-03T05:47:56.055Z,90.44
2019-02-03T05:50:27.888Z,90.68
2019-02-03T05:53:00.864Z,91.36
2019-02-03T05:55:34.755Z,91.45
2019-02-03T05:58:07.846Z,91.48
2019-02-03T06:00:42.276Z,90.33
2019-02-03T06:03:13.979Z,90.57
2019-02-03T06:05:46.000Z,90.78
2019-02-03T06:08:18.140Z,90.74
2019-02-03T06:10:49.716Z,90.68
2019-02-03T06:13:20.976Z,90.29
2019-02-03T06:15:55.264Z,90.11
2019-02-03T06:18:27.736Z,89.75
2019-02-03T06:21:03.312Z,89.17
2019-02-03T06:23:37.425Z,89.06
2019-02-03T06:26:10.400Z,89.67
2019-02-03T06:28:42.056Z,90.46
2019-02-03T06:31:17.459Z,90.25
2019-02-03T06:33:53.323Z,90.76
2019-02-03T06:36:26.302Z,91.25
2019-02-03T06:39:02.597Z,90.62
2019-02-03T06:41:37.147Z,90.46
2019-02-03T06:44:09.123Z,90.54
2019-02-03T06:46:58.166Z,90.81
2019-02-03T06:49:36.632Z,90.51
2019-02-03T06:52:08.289Z,90.54
2019-02-03T06:54:42.244Z,90.05
2019-02-03T06:57:14.325Z,90.37
2019-02-03T06:59:51.072Z,90.65
2019-02-03T07:02:23.075Z,90.66
2019-02-03T07:04:57.675Z,89.85
2019-02-03T07:07:31.250Z,89.27
2019-02-03T07:10:04.488Z,90.17
2019-02-03T07:12:38.372Z,90.52
2019-02-03T07:15:11.545Z,90.55
2019-02-03T07:17:47.105Z,90.03
2019-02-03T07:20:20.024Z,89.93
2019-02-03T07:22:54.521Z,90.76
2019-02-03T07:25:27.238Z,90.76
2019-02-03T07:27:58.500Z,91.51
2019-02-03T07:30:31.447Z,91.58
2019-02-03T07:33:03.530Z,90.99
2019-02-03T07:35:37.181Z,91.01
2019-02-03T07:38:10.790Z,90.31
2019-02-03T07:40:44.648Z,90.20
2019-02-03T07:43:18.315Z,90.46
2019-02-03T07:45:52.725Z,89.60
2019-02-03T07:48:26.325Z,89.12
2019-02-03T07:50:57.903Z,89.57
2019-02-03T07:53:31.423Z,89.22
2019-02-03T07:56:07.120Z,90.05
2019-02-03T07:58:38.421Z,90.01
2019-02-03T08:01:11.378Z,90.06
2019-02-03T08:03:45.032Z,89.77
2019-02-03T08:06:20.026Z,89.87
2019-02-03T08:08:54.552Z,89.86
2019-02-03T08:11:28.038Z,89.76
2019-02-03T08:14:01.569Z,89.97
2019-02-03T08:16:36.189Z,90.13
2019-02-03T08:19:08.707Z,89.96
2019-02-03T08:21:39.992Z,89.66
2019-02-03T08:24:13.617Z,89.62
2019-02-03T08:26:47.539Z,89.43
2019-02-03T08:29:23.009Z,89.76
2019-02-03T08:31:55.516Z,88.91
2019-02-03T08:34:28.259Z,89.29
2019-02-03T08:37:00.095Z,88.63
2019-02-03T08:39:35.437Z,88.76
2019-02-03T08:42:07.626Z,88.89
2019-02-03T08:44:41.357Z,88.00
2019-02-03T08:47:12.568Z,88.00
2019-02-03T08:49:43.834Z,87.21
2019-02-03T08:52:17.696Z,86.96
2019-02-03T08:54:57.981Z,86.59
2019-02-03T08:57:23.690Z,87.10
2019-02-03T08:59:56.706Z,86.86
2019-02-03T09:02:28.446Z,87.96
2019-02-03T09:05:01.896Z,87.89
2019-02-03T09:07:34.800Z,88.10
2019-02-03T09:10:09.001Z,87.57
2019-02-03T09:12:41.131Z,87.75
2019-02-03T09:15:14.936Z,86.64
2019-02-03T09:17:47.146Z,86.75
2019-02-03T09:20:24.630Z,86.21
2019-02-03T09:22:56.814Z,86.65
2019-02-03T09:25:28.498Z,86.41
2019-02-03T09:28:01.761Z,86.21
2019-02-03T09:30:35.441Z,86.00
2019-02-03T09:33:07.083Z,85.74
2019-02-03T09:35:40.878Z,85.40
2019-02-03T09:38:13.985Z,84.87
2019-02-03T09:40:46.301Z,84.53
2019-02-03T09:43:19.937Z,84.66
2019-02-03T09:45:55.462Z,84.80
2019-02-03T09:48:27.742Z,83.23
2019-02-03T09:50:59.044Z,82.96
2019-02-03T09:53:32.182Z,83.85
2019-02-03T09:56:06.154Z,84.07
2019-02-03T09:58:38.891Z,83.85
2019-02-03T10:01:11.077Z,84.02
2019-02-03T10:03:43.186Z,83.97
2019-02-03T10:06:17.791Z,83.76
2019-02-03T10:08:52.173Z,82.93
2019-02-03T10:11:25.644Z,83.02
2019-02-03T10:13:59.167Z,82.77
2019-02-03T10:16:31.280Z,82.97
2019-02-03T10:19:03.335Z,82.57
2019-02-03T10:21:37.009Z,82.62
2019-02-03T10:24:12.749Z,82.73
2019-02-03T10:26:46.776Z,81.90
2019-02-03T10:29:19.159Z,82.15
2019-02-03T10:31:54.677Z,82.70
2019-02-03T10:34:29.595Z,82.55
2019-02-03T10:37:01.293Z,82.88
2019-02-03T10:39:33.086Z,82.69
2019-02-03T10:42:06.279Z,81.59
2019-02-03T10:44:40.083Z,82.14
2019-02-03T10:47:14.090Z,82.88
2019-02-03T10:49:48.395Z,82.74
2019-02-03T10:52:22.310Z,82.79
2019-02-03T10:54:55.899Z,82.14
2019-02-03T10:57:27.175Z,81.90
2019-02-03T11:00:01.208Z,82.29
2019-02-03T11:02:35.935Z,82.31
2019-02-03T11:05:17.208Z,82.91
2019-02-03T11:07:51.228Z,82.62
2019-02-03T11:10:30.719Z,82.06
2019-02-03T11:13:04.228Z,81.69
2019-02-03T11:15:37.369Z,82.95
2019-02-03T11:18:12.907Z,83.09
2019-02-03T11:20:45.403Z,83.29
2019-02-03T11:23:19.377Z,83.67
2019-02-03T11:25:50.658Z,83.85
2019-02-03T11:28:24.397Z,84.14
2019-02-03T11:30:59.220Z,83.07
2019-02-03T11:33:32.842Z,82.43
2019-02-03T11:36:06.560Z,81.70
2019-02-03T11:38:40.340Z,82.49
2019-02-03T11:41:11.674Z,82.87
2019-02-03T11:43:45.375Z,83.82
2019-02-03T11:46:19.320Z,83.75
2019-02-03T11:48:53.801Z,84.62
2019-02-03T11:51:27.438Z,84.57
2019-02-03T11:54:01.132Z,85.07
2019-02-03T11:56:32.392Z,85.85
2019-02-03T11:59:08.117Z,85.76
2019-02-03T12:01:40.492Z,86.75
2019-02-03T12:04:11.711Z,86.06
2019-02-03T12:06:44.660Z,86.02
2019-02-03T12:09:18.767Z,85.63
2019-02-03T12:12:00.795Z,85.59
2019-02-03T12:14:26.443Z,85.19
2019-02-03T12:17:02.189Z,85.05
2019-02-03T12:19:35.644Z,84.68
2019-02-03T12:22:08.644Z,85.66
2019-02-03T12:24:40.681Z,86.64
2019-02-03T12:27:12.052Z,86.63
2019-02-03T12:29:44.534Z,86.28
2019-02-03T12:32:16.180Z,86.83
2019-02-03T12:34:47.574Z,86.59
2019-02-03T12:37:22.224Z,86.39
2019-02-03T12:39:54.803Z,86.81
2019-02-03T12:42:28.244Z,86.86
2019-02-03T12:44:59.716Z,86.90
2019-02-03T12:47:31.941Z,86.98
2019-02-03T12:50:07.110Z,86.58
2019-02-03T12:52:39.099Z,85.95
2019-02-03T12:55:11.597Z,85.89
2019-02-03T12:57:46.553Z,85.48
2019-02-03T13:00:20.027Z,85.18
2019-02-03T13:02:51.662Z,85.90
2019-02-03T13:05:25.955Z,85.48
2019-02-03T13:08:01.021Z,85.26
2019-02-03T13:10:35.011Z,85.12
2019-02-03T13:13:08.414Z,84.21
2019-02-03T13:15:47.261Z,84.93
2019-02-03T13:18:18.488Z,84.99
2019-02-03T13:20:52.471Z,84.96
2019-02-03T13:23:27.193Z,85.09
2019-02-03T13:26:01.118Z,84.87
2019-02-03T13:28:35.749Z,84.66
2019-02-03T13:31:07.292Z,84.55
2019-02-03T13:33:38.638Z,83.97
2019-02-03T13:36:12.019Z,84.11
2019-02-03T13:38:47.641Z,83.78
2019-02-03T13:41:19.929Z,83.36
2019-02-03T13:43:53.959Z,83.03
2019-02-03T13:46:26.937Z,82.33
2019-02-03T13:48:58.724Z,83.59
2019-02-03T13:51:32.008Z,83.17
2019-02-03T13:54:07.573Z,84.22
2019-02-03T13:56:40.112Z,84.48
2019-02-03T13:59:14.046Z,84.63
2019-02-03T14:02:20.339Z,84.27
2019-02-03T14:04:52.100Z,83.83
2019-02-03T14:07:26.081Z,84.33
2019-02-03T14:09:58.898Z,84.08
2019-02-03T14:12:31.742Z,84.52
2019-02-03T14:15:07.280Z,84.34
2019-02-03T14:17:39.068Z,85.49
2019-02-03T14:20:14.101Z,85.60
2019-02-03T14:22:47.223Z,85.11
2019-02-03T14:25:22.059Z,85.17
2019-02-03T14:27:54.612Z,85.27
2019-02-03T14:30:39.862Z,85.20
2019-02-03T14:33:05.534Z,85.21
2019-02-03T14:35:39.352Z,85.21
2019-02-03T14:38:13.126Z,84.49
2019-02-03T14:40:47.322Z,85.59
2019-02-03T14:43:18.703Z,85.45
2019-02-03T14:45:52.302Z,85.31
2019-02-03T14:48:26.351Z,85.65
2019-02-03T14:51:01.854Z,86.27
2019-02-03T14:53:35.256Z,86.90
2019-02-03T14:56:08.188Z,86.77
2019-02-03T14:58:39.608Z,86.35
2019-02-03T15:01:13.340Z,86.70
2019-02-03T15:03:50.606Z,86.85
2019-02-03T15:06:23.269Z,86.45
2019-02-03T15:08:55.333Z,86.69
2019-02-03T15:11:28.447Z,87.10
2019-02-03T15:14:00.513Z,86.91
2019-02-03T15:16:35.569Z,87.56
2019-02-03T15:19:08.973Z,86.72
2019-02-03T15:21:43.287Z,86.58
2019-02-03T15:24:16.617Z,86.96
2019-02-03T15:26:49.286Z,86.88
2019-02-03T15:29:20.721Z,86.96
2019-02-03T15:31:56.211Z,87.09
2019-02-03T15:34:28.616Z,86.67
2019-02-03T15:37:02.601Z,86.17
2019-02-03T15:39:55.307Z,85.70
2019-02-03T15:42:28.610Z,86.12
2019-02-03T15:45:02.586Z,86.09
2019-02-03T15:47:35.530Z,85.63
2019-02-03T15:50:11.301Z,85.62
2019-02-03T15:52:43.441Z,85.60
2019-02-03T15:55:26.075Z,85.67
2019-02-03T15:57:58.191Z,85.68
2019-02-03T16:00:37.619Z,86.42
2019-02-03T16:03:12.936Z,86.83
2019-02-03T16:05:45.522Z,87.27
2019-02-03T16:08:20.284Z,86.64
2019-02-03T16:10:53.526Z,86.71
2019-02-03T16:13:36.742Z,87.01
2019-02-03T16:16:06.469Z,86.75
2019-02-03T16:18:38.411Z,86.37
2019-02-03T16:21:09.738Z,85.93
2019-02-03T16:23:44.547Z,86.41
2019-02-03T16:26:17.931Z,86.52
2019-02-03T16:28:51.043Z,87.08
2019-02-03T16:31:24.774Z,86.50
2019-02-03T16:33:59.357Z,86.88
2019-02-03T16:36:32.888Z,87.07
2019-02-03T16:39:08.545Z,87.14
2019-02-03T16:41:40.889Z,87.37
2019-02-03T16:44:14.874Z,86.60
2019-02-03T16:46:48.899Z,87.34
2019-02-03T16:49:20.520Z,86.78
2019-02-03T16:51:54.768Z,86.41
2019-02-03T16:54:27.733Z,87.10
2019-02-03T16:56:59.035Z,87.25
2019-02-03T16:59:33.612Z,88.11
2019-02-03T17:02:06.893Z,88.39
2019-02-03T17:04:42.403Z,88.39
2019-02-03T17:07:17.564Z,88.61
2019-02-03T17:09:54.334Z,88.09
2019-02-03T17:12:28.467Z,88.43
2019-02-03T17:14:59.832Z,88.02
2019-02-03T17:17:31.700Z,87.96
2019-02-03T17:20:05.566Z,87.59
2019-02-03T17:22:39.044Z,87.84
2019-02-03T17:25:17.094Z,88.19
2019-02-03T17:27:49.337Z,87.72
2019-02-03T17:30:20.684Z,87.56
2019-02-03T17:32:54.298Z,87.53
2019-02-03T17:35:28.487Z,87.29
2019-02-03T17:38:03.822Z,88.16
2019-02-03T17:40:39.758Z,88.43
2019-02-03T17:43:13.070Z,88.33
2019-02-03T17:45:44.590Z,87.93
2019-02-03T17:48:18.423Z,87.02
2019-02-03T17:50:54.053Z,87.12
2019-02-03T17:53:26.452Z,86.81
2019-02-03T17:56:00.182Z,87.47
2019-02-03T17:58:31.448Z,87.68
2019-02-03T18:01:05.441Z,87.62
2019-02-03T18:03:40.270Z,88.01
2019-02-03T18:06:14.938Z,88.41
2019-02-03T18:08:49.889Z,88.28
2019-02-03T18:11:21.159Z,88.20
2019-02-03T18:13:53.752Z,88.34
2019-02-03T18:16:26.292Z,89.04
2019-02-03T18:19:01.180Z,89.01
2019-02-03T18:21:34.411Z,89.13
2019-02-03T18:24:08.306Z,89.56
2019-02-03T18:26:42.296Z,89.39
2019-02-03T18:29:26.749Z,88.96
2019-02-03T18:31:59.220Z,89.33
2019-02-03T18:34:30.532Z,88.97
2019-02-03T18:37:04.354Z,89.05
2019-02-03T18:39:36.245Z,89.07
2019-02-03T18:42:09.736Z,88.64
2019-02-03T18:44:43.316Z,88.61
2019-02-03T18:47:16.417Z,89.23
2019-02-03T18:49:58.251Z,89.43
2019-02-03T18:52:29.576Z,90.02
2019-02-03T18:55:02.787Z,89.56
2019-02-03T18:57:35.540Z,89.51
2019-02-03T19:00:13.856Z,89.50
2019-02-03T19:02:46.693Z,89.28
2019-02-03T19:05:22.139Z,89.19
2019-02-03T19:07:55.542Z,88.65
2019-02-03T19:10:27.695Z,88.31
2019-02-03T19:12:59.273Z,88.45
2019-02-03T19:15:31.887Z,88.69
2019-02-03T19:18:04.702Z,88.62
2019-02-03T19:20:39.698Z,88.41
2019-02-03T19:23:15.276Z,88.63
2019-02-03T19:25:49.582Z,88.39
2019-02-03T19:28:20.973Z,88.43
2019-02-03T19:30:55.405Z,88.56
2019-02-03T19:33:28.874Z,88.20
2019-02-03T19:36:02.586Z,87.80
2019-02-03T19:38:36.628Z,87.95
2019-02-03T19:41:10.654Z,87.56
2019-02-03T19:43:44.570Z,86.62
2019-02-03T19:46:19.868Z,87.36
2019-02-03T19:48:55.526Z,86.65
2019-02-03T19:51:29.515Z,86.41
2019-02-03T19:54:02.571Z,86.56
2019-02-03T19:56:36.327Z,85.61
2019-02-03T19:59:08.262Z,85.55
2019-02-03T20:01:41.787Z,85.35
2019-02-03T20:04:17.361Z,85.37
2019-02-03T20:06:49.801Z,85.18
2019-02-03T20:09:21.097Z,85.45
2019-02-03T20:11:54.719Z,85.55
2019-02-03T20:14:26.920Z,85.82
2019-02-03T20:16:59.747Z,85.51
2019-02-03T20:19:32.817Z,85.78
2019-02-03T20:22:04.669Z,86.09
2019-02-03T20:24:38.781Z,85.71
2019-02-03T20:27:12.711Z,86.40
2019-02-03T20:29:44.075Z,86.87
2019-02-03T20:32:15.602Z,86.84
2019-02-03T20:34:48.834Z,87.14
2019-02-03T20:37:24.348Z,87.10
2019-02-03T20:40:02.218Z,86.85
2019-02-03T20:42:31.782Z,87.08
2019-02-03T20:45:05.803Z,87.12
2019-02-03T20:47:38.707Z,87.09
2019-02-03T20:50:15.369Z,87.36
2019-02-03T20:52:48.620Z,86.90
2019-02-03T20:55:22.352Z,86.30
2019-02-03T20:57:54.942Z,86.50
2019-02-03T21:00:28.344Z,86.69
2019-02-03T21:02:59.898Z,86.51
2019-02-03T21:05:32.206Z,86.22
2019-02-03T21:08:05.305Z,86.20
2019-02-03T21:10:38.849Z,86.23
2019-02-03T21:13:12.892Z,86.60
2019-02-03T21:15:46.912Z,86.67
2019-02-03T21:18:20.934Z,86.70
2019-02-03T21:20:56.646Z,86.64
2019-02-03T21:23:29.149Z,86.56
2019-02-03T21:26:03.468Z,86.14
2019-02-03T21:28:35.099Z,86.40
2019-02-03T21:31:07.006Z,86.49
2019-02-03T21:33:38.413Z,86.18
2019-02-03T21:36:09.614Z,86.08
2019-02-03T21:38:42.947Z,85.72
2019-02-03T21:41:18.636Z,85.96
2019-02-03T21:43:52.507Z,85.28
2019-02-03T21:46:25.553Z,85.36
2019-02-03T21:48:59.253Z,86.18
2019-02-03T21:51:30.471Z,86.44
2019-02-03T21:54:05.817Z,86.73
2019-02-03T21:56:38.177Z,86.56
2019-02-03T21:59:09.393Z,86.61
2019-02-03T22:01:43.135Z,86.45
2019-02-03T22:04:17.231Z,86.37
2019-02-03T22:06:51.249Z,86.34
2019-02-03T22:09:25.245Z,85.82
2019-02-03T22:11:58.268Z,86.02
2019-02-03T22:14:29.770Z,85.77
2019-02-03T22:17:03.831Z,85.72
2019-02-03T22:23:11.619Z,85.81
2019-02-03T22:25:42.828Z,85.70
2019-02-03T22:28:16.489Z,85.83
2019-02-03T22:30:50.201Z,85.50
2019-02-03T22:33:23.187Z,85.35
2019-02-03T22:35:55.278Z,85.46
2019-02-03T22:38:28.958Z,84.97
2019-02-03T22:41:01.396Z,84.84
2019-02-03T22:43:34.705Z,84.72
2019-02-03T22:46:08.832Z,84.45
2019-02-03T22:48:44.027Z,83.97
2019-02-03T22:51:20.104Z,84.20
2019-02-03T22:53:52.893Z,84.54
2019-02-03T22:56:24.567Z,84.80
2019-02-03T22:58:58.702Z,84.88
2019-02-03T23:01:34.447Z,84.81
2019-02-03T23:04:12.308Z,85.45
2019-02-03T23:06:45.586Z,84.87
2019-02-03T23:09:29.109Z,84.98
2019-02-03T23:12:04.326Z,84.89
2019-02-03T23:14:36.166Z,84.29
2019-02-03T23:17:08.508Z,83.62
2019-02-03T23:19:41.674Z,84.24
2019-02-03T23:22:15.503Z,83.91
2019-02-03T23:24:46.718Z,83.08
2019-02-03T23:27:20.666Z,83.77
2019-02-03T23:29:51.987Z,83.99
2019-02-03T23:32:25.617Z,83.92
2019-02-03T23:35:00.008Z,83.53
2019-02-03T23:37:32.565Z,83.38
2019-02-03T23:40:05.923Z,83.57
2019-02-03T23:42:39.465Z,83.42
2019-02-03T23:45:11.738Z,83.76
2019-02-03T23:47:43.118Z,83.45
2019-02-03T23:50:18.587Z,83.91
2019-02-03T23:52:50.648Z,83.62
2019-02-03T23:55:24.644Z,83.32
2019-02-03T23:57:58.776Z,83.25
